createdAt,value
2019-04-06T00:00:50.476Z,27.63
2019-04-06T00:03:19.651Z,28.47
2019-04-06T00:05:48.520Z,25.27
2019-04-06T00:08:17.682Z,26.93
2019-04-06T00:10:47.098Z,26.83
2019-04-06T00:13:15.988Z,26.33
2019-04-06T00:15:45.534Z,27.13
2019-04-06T00:18:14.476Z,25.10
2019-04-06T00:20:43.484Z,25.17
2019-04-06T00:23:12.549Z,27.10
2019-04-06T00:25:44.736Z,25.40
2019-04-06T00:28:13.759Z,25.90
2019-04-06T00:31:00.704Z,25.60
2019-04-06T00:33:29.727Z,25.97
2019-04-06T00:35:58.569Z,27.57
2019-04-06T00:38:27.721Z,27.30
2019-04-06T00:40:57.530Z,25.70
2019-04-06T00:43:26.783Z,26.23
2019-04-06T00:45:55.570Z,25.97
2019-04-06T00:48:24.700Z,26.97
2019-04-06T00:50:53.656Z,25.67
2019-04-06T00:53:22.878Z,26.70
2019-04-06T00:55:55.835Z,26.10
2019-04-06T00:58:22.378Z,25.27
2019-04-06T01:00:51.609Z,25.73
2019-04-06T01:03:20.842Z,25.08
2019-04-06T01:05:49.867Z,27.20
2019-04-06T01:08:18.746Z,25.43
2019-04-06T01:10:47.690Z,27.47
2019-04-06T01:13:16.583Z,26.47
2019-04-06T01:15:45.339Z,27.87
2019-04-06T01:18:14.197Z,27.07
2019-04-06T01:20:43.327Z,26.33
2019-04-06T01:23:12.168Z,27.67
2019-04-06T01:25:41.226Z,26.43
2019-04-06T01:28:10.065Z,27.97
2019-04-06T01:30:39.011Z,27.27
2019-04-06T01:33:07.809Z,25.90
2019-04-06T01:35:36.934Z,27.47
2019-04-06T01:38:05.888Z,28.80
2019-04-06T01:40:34.708Z,27.60
2019-04-06T01:43:03.633Z,28.80
2019-04-06T01:45:32.671Z,27.30
2019-04-06T01:48:01.490Z,27.23
2019-04-06T01:50:31.694Z,26.37
2019-04-06T01:53:00.646Z,26.63
2019-04-06T01:55:30.734Z,28.87
2019-04-06T01:57:59.602Z,28.17
2019-04-06T02:00:28.769Z,27.67
2019-04-06T02:02:57.551Z,27.30
2019-04-06T02:05:26.339Z,28.13
2019-04-06T02:07:55.511Z,28.33
2019-04-06T02:10:24.333Z,27.53
2019-04-06T02:12:53.217Z,28.77
2019-04-06T02:15:22.164Z,29.27
2019-04-06T02:17:51.005Z,26.10
2019-04-06T02:20:19.815Z,27.23
2019-04-06T02:22:48.948Z,27.37
2019-04-06T02:25:17.754Z,28.87
2019-04-06T02:27:46.882Z,27.97
2019-04-06T02:30:28.971Z,29.20
2019-04-06T02:33:20.573Z,28.83
2019-04-06T02:36:08.403Z,26.83
2019-04-06T02:39:00.252Z,28.53
2019-04-06T02:41:50.526Z,27.53
2019-04-06T02:44:19.561Z,28.60
2019-04-06T02:46:48.555Z,28.07
2019-04-06T02:49:17.515Z,28.00
2019-04-06T02:51:46.396Z,28.17
2019-04-06T02:54:15.199Z,29.23
2019-04-06T02:56:47.044Z,28.67
2019-04-06T02:59:15.031Z,28.63
2019-04-06T03:01:43.953Z,29.97
2019-04-06T03:04:12.902Z,27.40
2019-04-06T03:06:41.731Z,28.87
2019-04-06T03:09:11.758Z,30.97
2019-04-06T03:11:41.440Z,29.17
2019-04-06T03:14:10.243Z,28.30
2019-04-06T03:16:39.550Z,28.03
2019-04-06T03:19:08.621Z,29.07
2019-04-06T03:21:38.034Z,29.43
2019-04-06T03:24:06.840Z,31.20
2019-04-06T03:26:35.771Z,30.43
2019-04-06T03:29:04.575Z,30.70
2019-04-06T03:31:33.610Z,30.97
2019-04-06T03:34:03.266Z,30.57
2019-04-06T03:36:32.283Z,31.23
2019-04-06T03:39:01.080Z,30.90
2019-04-06T03:41:30.114Z,30.60
2019-04-06T03:43:58.939Z,32.23
2019-04-06T03:46:27.973Z,30.53
2019-04-06T03:48:56.902Z,32.93
2019-04-06T03:51:25.713Z,32.70
2019-04-06T03:53:54.566Z,32.27
2019-04-06T03:56:23.581Z,31.53
2019-04-06T03:58:52.765Z,33.23
2019-04-06T04:01:21.798Z,33.13
2019-04-06T04:03:51.563Z,32.20
2019-04-06T04:06:20.548Z,32.73
2019-04-06T04:08:49.852Z,33.73
2019-04-06T04:11:18.910Z,32.57
2019-04-06T04:13:48.184Z,32.83
2019-04-06T04:16:17.023Z,35.47
2019-04-06T04:18:46.070Z,34.07
2019-04-06T04:21:14.873Z,34.17
2019-04-06T04:23:43.940Z,33.67
2019-04-06T04:26:12.958Z,34.67
2019-04-06T04:28:42.836Z,34.23
2019-04-06T04:31:12.187Z,34.80
2019-04-06T04:33:41.478Z,34.63
2019-04-06T04:36:10.244Z,35.60
2019-04-06T04:38:39.285Z,34.73
2019-04-06T04:41:08.774Z,34.10
2019-04-06T04:43:37.848Z,34.50
2019-04-06T04:46:07.133Z,35.87
2019-04-06T04:48:36.003Z,35.27
2019-04-06T04:51:04.811Z,35.03
2019-04-06T04:53:33.991Z,36.47
2019-04-06T04:56:03.352Z,36.30
2019-04-06T04:58:32.325Z,37.33
2019-04-06T05:01:01.107Z,36.37
2019-04-06T05:03:30.190Z,37.90
2019-04-06T05:05:59.087Z,39.57
2019-04-06T05:08:28.133Z,38.20
2019-04-06T05:10:57.450Z,39.83
2019-04-06T05:13:26.388Z,38.63
2019-04-06T05:16:20.370Z,41.47
2019-04-06T05:18:49.543Z,39.23
2019-04-06T05:21:18.579Z,40.83
2019-04-06T05:23:47.436Z,39.23
2019-04-06T05:26:16.372Z,39.80
2019-04-06T05:28:45.744Z,38.63
2019-04-06T05:31:14.545Z,38.67
2019-04-06T05:33:43.789Z,42.00
2019-04-06T05:36:12.981Z,41.77
2019-04-06T05:38:41.950Z,43.20
2019-04-06T05:41:10.953Z,41.43
2019-04-06T05:43:41.269Z,39.53
2019-04-06T05:46:10.326Z,40.93
2019-04-06T05:48:39.134Z,41.67
2019-04-06T05:51:08.269Z,40.87
2019-04-06T05:53:37.082Z,41.10
2019-04-06T05:56:05.981Z,39.70
2019-04-06T05:58:35.069Z,40.47
2019-04-06T06:01:04.353Z,42.07
2019-04-06T06:03:33.378Z,40.67
2019-04-06T06:06:02.885Z,41.43
2019-04-06T06:08:31.688Z,39.60
2019-04-06T06:11:00.747Z,40.57
2019-04-06T06:13:29.611Z,41.37
2019-04-06T06:15:58.527Z,41.17
2019-04-06T06:18:27.748Z,40.27
2019-04-06T06:20:56.758Z,42.17
2019-04-06T06:23:26.036Z,40.63
2019-04-06T06:25:55.022Z,40.30
2019-04-06T06:28:24.575Z,43.13
2019-04-06T06:30:53.562Z,42.07
2019-04-06T06:33:22.419Z,42.67
2019-04-06T06:35:51.375Z,41.57
2019-04-06T06:38:20.566Z,44.13
2019-04-06T06:40:49.532Z,42.30
2019-04-06T06:43:18.600Z,42.57
2019-04-06T06:45:47.596Z,43.73
2019-04-06T06:48:17.034Z,42.43
2019-04-06T06:50:46.320Z,44.10
2019-04-06T06:53:15.235Z,42.27
2019-04-06T06:55:44.499Z,45.67
2019-04-06T06:58:24.239Z,46.60
2019-04-06T07:00:44.331Z,45.47
2019-04-06T07:03:13.261Z,44.93
2019-04-06T07:05:42.627Z,47.07
2019-04-06T07:08:11.875Z,46.70
2019-04-06T07:10:40.992Z,45.00
2019-04-06T07:13:11.047Z,46.37
2019-04-06T07:15:39.950Z,46.60
2019-04-06T07:18:09.060Z,45.67
2019-04-06T07:20:38.471Z,45.73
2019-04-06T07:23:09.902Z,46.17
2019-04-06T07:25:38.970Z,44.10
2019-04-06T07:28:08.174Z,46.17
2019-04-06T07:30:37.624Z,46.63
2019-04-06T07:33:06.847Z,45.70
2019-04-06T07:35:35.976Z,46.83
2019-04-06T07:38:04.855Z,45.30
2019-04-06T07:40:34.346Z,46.03
2019-04-06T07:43:03.464Z,46.43
2019-04-06T07:45:34.171Z,47.20
2019-04-06T07:48:03.262Z,45.43
2019-04-06T07:50:32.357Z,46.43
2019-04-06T07:53:01.495Z,46.50
2019-04-06T07:55:30.740Z,45.67
2019-04-06T07:57:59.937Z,46.37
2019-04-06T08:00:29.399Z,45.50
2019-04-06T08:02:58.731Z,45.50
2019-04-06T08:05:28.368Z,45.57
2019-04-06T08:07:57.376Z,45.10
2019-04-06T08:10:26.448Z,46.80
2019-04-06T08:12:55.700Z,44.07
2019-04-06T08:15:24.743Z,44.70
2019-04-06T08:17:54.157Z,45.27
2019-04-06T08:20:23.053Z,45.53
2019-04-06T08:22:52.454Z,45.53
2019-04-06T08:25:21.863Z,44.33
2019-04-06T08:27:52.134Z,43.50
2019-04-06T08:30:20.966Z,42.03
2019-04-06T08:32:50.331Z,44.90
2019-04-06T08:35:25.146Z,43.90
2019-04-06T08:37:51.475Z,45.43
2019-04-06T08:40:20.753Z,44.20
2019-04-06T08:42:51.060Z,45.17
2019-04-06T08:45:19.845Z,44.43
2019-04-06T08:47:48.924Z,43.13
2019-04-06T08:50:17.996Z,43.83
2019-04-06T08:52:46.832Z,43.20
2019-04-06T08:55:15.740Z,43.33
2019-04-06T08:57:45.525Z,42.60
2019-04-06T09:00:14.726Z,42.43
2019-04-06T09:02:43.650Z,42.57
2019-04-06T09:05:12.874Z,42.63
2019-04-06T09:07:42.480Z,40.83
2019-04-06T09:10:11.486Z,41.97
2019-04-06T09:12:40.366Z,40.87
2019-04-06T09:15:09.655Z,40.37
2019-04-06T09:17:38.534Z,41.43
2019-04-06T09:20:08.091Z,40.67
2019-04-06T09:22:37.715Z,41.03
2019-04-06T09:25:06.831Z,40.87
2019-04-06T09:27:35.829Z,41.70
2019-04-06T09:30:05.451Z,42.63
2019-04-06T09:32:35.132Z,40.60
2019-04-06T09:35:05.598Z,40.57
2019-04-06T09:37:35.686Z,40.57
2019-04-06T09:40:05.373Z,40.40
2019-04-06T09:42:34.202Z,41.07
2019-04-06T09:45:25.245Z,38.80
2019-04-06T09:48:12.127Z,41.17
2019-04-06T09:51:04.634Z,40.87
2019-04-06T09:54:06.293Z,39.27
2019-04-06T09:56:51.376Z,40.13
2019-04-06T09:59:48.635Z,38.17
2019-04-06T10:02:42.756Z,40.57
2019-04-06T10:05:31.025Z,40.60
2019-04-06T10:08:34.185Z,39.03
2019-04-06T10:11:25.181Z,39.83
2019-04-06T10:14:12.433Z,39.37
2019-04-06T10:16:59.103Z,39.20
2019-04-06T10:20:05.414Z,40.23
2019-04-06T10:22:57.444Z,39.13
2019-04-06T10:25:48.606Z,39.40
2019-04-06T10:28:52.268Z,39.13
2019-04-06T10:31:31.883Z,39.63
2019-04-06T10:34:15.884Z,38.70
2019-04-06T10:37:22.355Z,38.70
2019-04-06T10:40:02.005Z,37.90
2019-04-06T10:42:54.627Z,39.53
2019-04-06T10:45:37.456Z,39.67
2019-04-06T10:48:30.146Z,38.80
2019-04-06T10:51:09.969Z,36.73
2019-04-06T10:54:03.708Z,38.17
2019-04-06T10:56:50.444Z,38.43
2019-04-06T10:59:36.900Z,39.47
2019-04-06T11:02:22.936Z,38.83
2019-04-06T11:05:00.195Z,39.30
2019-04-06T11:07:46.708Z,37.93
2019-04-06T11:10:33.504Z,41.10
2019-04-06T11:13:25.007Z,38.67
2019-04-06T11:16:09.504Z,38.60
2019-04-06T11:19:00.356Z,39.37
2019-04-06T11:21:54.785Z,37.80
2019-04-06T11:25:00.830Z,38.13
2019-04-06T11:27:51.886Z,36.53
2019-04-06T11:30:34.898Z,38.77
2019-04-06T11:33:22.964Z,39.10
2019-04-06T11:36:07.803Z,39.43
2019-04-06T11:38:51.111Z,38.80
2019-04-06T11:41:39.064Z,38.93
2019-04-06T11:44:29.960Z,36.83
2019-04-06T11:47:09.150Z,37.47
2019-04-06T11:49:43.819Z,37.77
2019-04-06T11:52:44.089Z,39.03
2019-04-06T11:55:26.281Z,37.50
2019-04-06T11:58:10.850Z,38.13
2019-04-06T12:01:08.119Z,37.67
2019-04-06T12:03:56.486Z,37.13
2019-04-06T12:07:03.287Z,38.93
2019-04-06T12:09:43.997Z,36.63
2019-04-06T12:12:33.756Z,38.13
2019-04-06T12:15:25.073Z,36.97
2019-04-06T12:18:13.069Z,38.17
2019-04-06T12:21:00.045Z,38.33
2019-04-06T12:23:47.082Z,37.33
2019-04-06T12:26:33.946Z,36.73
2019-04-06T12:29:24.598Z,36.47
2019-04-06T12:32:06.624Z,36.07
2019-04-06T12:34:47.603Z,36.83
2019-04-06T12:37:44.460Z,37.70
2019-04-06T12:40:25.396Z,38.53
2019-04-06T12:43:13.566Z,37.47
2019-04-06T12:46:17.090Z,39.20
2019-04-06T12:48:57.902Z,38.33
2019-04-06T12:51:51.919Z,37.83
2019-04-06T12:54:49.026Z,38.97
2019-04-06T12:57:42.671Z,38.07
2019-04-06T13:00:21.473Z,40.67
2019-04-06T13:02:59.613Z,37.43
2019-04-06T13:05:39.448Z,39.70
2019-04-06T13:08:24.911Z,38.80
2019-04-06T13:11:16.128Z,39.23
2019-04-06T13:14:08.600Z,37.97
2019-04-06T13:16:42.984Z,37.67
2019-04-06T13:19:49.534Z,38.30
2019-04-06T13:22:52.509Z,37.80
2019-04-06T13:25:31.700Z,39.37
2019-04-06T13:28:26.417Z,37.63
2019-04-06T13:31:14.431Z,38.07
2019-04-06T13:33:55.512Z,36.03
2019-04-06T13:36:46.640Z,36.90
2019-04-06T13:39:37.574Z,37.60
2019-04-06T13:42:28.540Z,35.00
2019-04-06T13:45:35.132Z,35.90
2019-04-06T13:48:25.666Z,34.10
2019-04-06T13:51:07.068Z,34.87
2019-04-06T13:53:52.377Z,34.50
2019-04-06T13:56:40.325Z,34.10
2019-04-06T13:59:19.722Z,35.43
2019-04-06T14:02:05.980Z,33.93
2019-04-06T14:04:42.123Z,33.53
2019-04-06T14:07:34.770Z,32.98
2019-04-06T14:10:26.729Z,33.50
2019-04-06T14:13:20.999Z,32.57
2019-04-06T14:16:20.918Z,31.53
2019-04-06T14:19:14.075Z,32.63
2019-04-06T14:21:59.007Z,30.47
2019-04-06T14:24:50.363Z,30.87
2019-04-06T14:27:38.055Z,29.40
2019-04-06T14:30:23.739Z,32.70
2019-04-06T14:33:17.764Z,29.83
2019-04-06T14:35:58.650Z,32.30
2019-04-06T14:38:53.136Z,32.17
2019-04-06T14:41:40.659Z,30.30
2019-04-06T14:44:32.987Z,30.87
2019-04-06T14:47:29.842Z,31.10
2019-04-06T14:50:24.173Z,28.93
2019-04-06T14:53:10.963Z,30.37
2019-04-06T14:55:48.587Z,28.00
2019-04-06T14:58:35.561Z,29.80
2019-04-06T15:01:21.669Z,28.33
2019-04-06T15:04:27.907Z,27.37
2019-04-06T15:07:11.947Z,26.93
2019-04-06T15:09:54.312Z,27.53
2019-04-06T15:12:41.101Z,27.27
2019-04-06T15:15:32.513Z,27.47
2019-04-06T15:18:17.533Z,27.03
2019-04-06T15:21:04.217Z,26.33
2019-04-06T15:23:44.289Z,27.65
2019-04-06T15:26:32.648Z,25.23
2019-04-06T15:29:22.336Z,26.13
2019-04-06T15:32:09.151Z,25.90
2019-04-06T15:35:15.313Z,27.77
2019-04-06T15:38:18.594Z,26.07
2019-04-06T15:40:54.742Z,23.27
2019-04-06T15:43:41.549Z,24.70
2019-04-06T15:46:47.697Z,22.97
2019-04-06T15:49:24.445Z,22.47
2019-04-06T15:52:25.065Z,24.17
2019-04-06T15:55:31.486Z,28.70
2019-04-06T15:58:07.418Z,29.80
2019-04-06T16:01:01.360Z,29.27
2019-04-06T16:03:39.687Z,29.00
2019-04-06T16:06:23.604Z,28.50
2019-04-06T16:09:17.701Z,29.73
2019-04-06T16:12:05.580Z,29.47
2019-04-06T16:14:53.488Z,29.60
2019-04-06T16:17:28.299Z,29.07
2019-04-06T16:20:19.692Z,28.40
2019-04-06T16:23:06.573Z,28.70
2019-04-06T16:25:48.891Z,28.47
2019-04-06T16:28:35.922Z,29.87
2019-04-06T16:31:22.799Z,28.50
2019-04-06T16:34:10.846Z,27.93
2019-04-06T16:36:57.778Z,26.97
2019-04-06T16:39:45.833Z,27.70
2019-04-06T16:42:32.468Z,26.53
2019-04-06T16:45:19.303Z,27.27
2019-04-06T16:47:59.591Z,25.30
2019-04-06T16:50:43.371Z,26.47
2019-04-06T16:53:50.057Z,26.60
2019-04-06T16:56:36.540Z,26.57
2019-04-06T16:59:27.787Z,26.17
2019-04-06T17:02:24.358Z,24.87
2019-04-06T17:05:16.060Z,23.87
2019-04-06T17:08:10.188Z,25.67
2019-04-06T17:10:58.912Z,25.90
2019-04-06T17:13:42.120Z,27.90
2019-04-06T17:16:42.326Z,25.13
2019-04-06T17:19:30.629Z,25.37
2019-04-06T17:22:08.829Z,25.93
2019-04-06T17:25:00.048Z,27.33
2019-04-06T17:27:46.784Z,26.17
2019-04-06T17:30:24.897Z,25.07
2019-04-06T17:33:22.528Z,23.87
2019-04-06T17:36:11.927Z,25.40
2019-04-06T17:39:02.959Z,26.67
2019-04-06T17:41:48.689Z,24.97
2019-04-06T17:44:37.150Z,25.40
2019-04-06T17:47:25.235Z,25.10
2019-04-06T17:50:12.431Z,25.17
2019-04-06T17:52:58.927Z,24.23
2019-04-06T17:55:45.089Z,24.70
2019-04-06T17:58:24.463Z,25.10
2019-04-06T18:01:24.716Z,28.33
2019-04-06T18:04:28.227Z,29.53
2019-04-06T18:07:25.864Z,30.80
2019-04-06T18:10:19.869Z,28.77
2019-04-06T18:13:07.918Z,27.17
2019-04-06T18:15:37.051Z,24.80
2019-04-06T18:18:06.196Z,26.10
2019-04-06T18:20:35.108Z,26.10
2019-04-06T18:23:04.981Z,24.70
2019-04-06T18:25:34.462Z,24.47
2019-04-06T18:28:05.294Z,24.77
2019-04-06T18:30:34.309Z,24.63
2019-04-06T18:33:07.212Z,24.73
2019-04-06T18:35:36.196Z,24.43
2019-04-06T18:38:24.202Z,24.10
2019-04-06T18:40:53.651Z,23.80
2019-04-06T18:43:23.264Z,23.73
2019-04-06T18:45:52.497Z,24.90
2019-04-06T18:48:21.379Z,24.67
2019-04-06T18:50:50.748Z,24.60
2019-04-06T18:53:20.431Z,23.57
2019-04-06T18:55:49.567Z,22.47
2019-04-06T18:58:18.729Z,23.10
2019-04-06T19:00:48.355Z,24.13
2019-04-06T19:03:17.560Z,24.13
2019-04-06T19:05:46.651Z,23.90
2019-04-06T19:08:15.562Z,23.87
2019-04-06T19:10:45.094Z,23.40
2019-04-06T19:13:14.690Z,23.47
2019-04-06T19:15:44.225Z,23.20
2019-04-06T19:18:13.448Z,23.57
2019-04-06T19:20:42.667Z,23.10
2019-04-06T19:23:12.512Z,22.40
2019-04-06T19:25:41.484Z,22.43
2019-04-06T19:28:11.064Z,22.70
2019-04-06T19:30:40.050Z,22.70
2019-04-06T19:33:08.963Z,24.10
2019-04-06T19:35:37.810Z,22.03
2019-04-06T19:38:06.879Z,22.77
2019-04-06T19:40:35.880Z,22.97
2019-04-06T19:43:05.490Z,23.03
2019-04-06T19:45:34.890Z,23.57
2019-04-06T19:48:04.372Z,24.40
2019-04-06T19:50:33.717Z,24.10
2019-04-06T19:53:02.845Z,24.47
2019-04-06T19:55:31.761Z,23.43
2019-04-06T19:58:01.236Z,25.57
2019-04-06T20:00:30.280Z,27.67
2019-04-06T20:02:59.474Z,26.33
2019-04-06T20:05:28.611Z,24.97
2019-04-06T20:07:57.813Z,24.30
2019-04-06T20:10:26.728Z,23.80
2019-04-06T20:12:57.194Z,24.13
2019-04-06T20:15:26.150Z,24.33
2019-04-06T20:17:55.200Z,25.40
2019-04-06T20:20:24.180Z,25.03
2019-04-06T20:22:53.097Z,25.60
2019-04-06T20:25:23.982Z,25.07
2019-04-06T20:27:53.266Z,25.07
2019-04-06T20:30:22.954Z,25.53
2019-04-06T20:32:51.968Z,25.67
2019-04-06T20:35:21.426Z,26.47
2019-04-06T20:37:51.120Z,25.80
2019-04-06T20:40:21.010Z,26.03
2019-04-06T20:42:50.081Z,26.57
2019-04-06T20:45:19.208Z,25.77
2019-04-06T20:47:48.544Z,24.93
2019-04-06T20:50:18.008Z,25.30
2019-04-06T20:52:47.063Z,25.97
2019-04-06T20:55:16.080Z,25.83
2019-04-06T20:57:45.004Z,26.23
2019-04-06T21:00:14.619Z,25.10
2019-04-06T21:02:43.990Z,25.83
2019-04-06T21:05:14.183Z,26.07
2019-04-06T21:07:44.950Z,27.43
2019-04-06T21:10:15.470Z,27.10
2019-04-06T21:12:44.478Z,25.27
2019-04-06T21:15:18.833Z,26.63
2019-04-06T21:17:44.940Z,26.67
2019-04-06T21:20:14.377Z,27.13
2019-04-06T21:22:43.783Z,26.03
2019-04-06T21:25:13.571Z,26.60
2019-04-06T21:27:44.085Z,26.37
2019-04-06T21:30:13.964Z,26.97
2019-04-06T21:32:42.884Z,27.50
2019-04-06T21:35:13.579Z,27.77
2019-04-06T21:37:42.728Z,27.40
2019-04-06T21:40:12.688Z,27.63
2019-04-06T21:42:42.034Z,27.73
2019-04-06T21:45:11.254Z,28.20
2019-04-06T21:47:40.979Z,27.07
2019-04-06T21:50:10.313Z,27.87
2019-04-06T21:52:40.370Z,27.13
2019-04-06T21:55:11.234Z,28.67
2019-04-06T21:57:40.697Z,27.67
2019-04-06T22:00:13.173Z,27.63
2019-04-06T22:02:42.344Z,26.87
2019-04-06T22:05:11.572Z,27.77
2019-04-06T22:07:48.100Z,27.73
2019-04-06T22:10:12.872Z,28.30
2019-04-06T22:12:41.978Z,27.70
2019-04-06T22:15:12.495Z,29.17
2019-04-06T22:17:42.151Z,29.43
2019-04-06T22:20:12.276Z,28.03
2019-04-06T22:22:41.670Z,28.80
2019-04-06T22:25:11.220Z,29.10
2019-04-06T22:27:40.336Z,28.40
2019-04-06T22:30:10.063Z,29.30
2019-04-06T22:32:39.371Z,28.50
2019-04-06T22:35:08.928Z,27.67
2019-04-06T22:37:37.985Z,27.57
2019-04-06T22:40:07.522Z,28.30
2019-04-06T22:42:36.725Z,29.37
2019-04-06T22:45:07.126Z,28.23
2019-04-06T22:47:35.976Z,29.07
2019-04-06T22:50:06.064Z,28.53
2019-04-06T22:52:35.353Z,28.30
2019-04-06T22:55:05.065Z,27.93
2019-04-06T22:57:34.576Z,29.43
2019-04-06T23:00:03.909Z,28.33
2019-04-06T23:02:41.238Z,27.77
2019-04-06T23:05:35.767Z,29.40
2019-04-06T23:08:04.779Z,29.13
2019-04-06T23:10:34.482Z,27.50
2019-04-06T23:13:04.296Z,27.83
2019-04-06T23:15:33.822Z,27.97
2019-04-06T23:18:03.574Z,28.13
2019-04-06T23:20:33.339Z,26.87
2019-04-06T23:23:02.291Z,27.53
2019-04-06T23:25:31.221Z,27.67
2019-04-06T23:28:00.948Z,27.63
2019-04-06T23:30:30.039Z,29.07
2019-04-06T23:32:58.968Z,28.57
2019-04-06T23:35:27.952Z,28.20
2019-04-06T23:37:57.301Z,28.40
2019-04-06T23:40:26.264Z,30.20
2019-04-06T23:42:55.082Z,29.73
2019-04-06T23:45:25.147Z,28.60
2019-04-06T23:47:54.011Z,28.07
2019-04-06T23:50:23.632Z,29.83
2019-04-06T23:52:52.844Z,28.33
2019-04-06T23:55:21.895Z,30.27
2019-04-06T23:57:51.039Z,27.10
